Friday, November 24, 2017, 12:35 AM EST
Back to Local

KEWB, New Bedford Regional Airport

Location: New Bedford, MA, United States Lat: 41.683
Local Time: 12:35 AM EST ( 5:35 GMT) Lon: -70.967
Time Zone: US/Eastern Elev: 78 ft

Show me the last for .
Show Decoded

2017-11-23 23:53 METAR KEWB 240453Z AUTO 00000KT 10SM BKN100 M02/M04 A2999 RMK AO2 SLP157
                 T10221039 400561033 $ =
2017-11-23 22:53 METAR KEWB 240353Z AUTO 00000KT 10SM CLR M03/M04 A3000 RMK AO2 SLP158 T10331044
                 $ =
2017-11-23 21:53 METAR KEWB 240253Z 00000KT 10SM CLR M02/M04 A2999 RMK AO2 SLP156 T10171039 52005
                 $ =
2017-11-23 20:53 METAR KEWB 240153Z 00000KT 10SM CLR M02/M04 A2998 RMK AO2 SLP153 T10171039 $ =
2017-11-23 19:53 METAR KEWB 240053Z 00000KT 10SM CLR M02/M04 A2998 RMK AO2 SLP153 T10221039 $ =
2017-11-23 18:53 METAR KEWB 232353Z 00000KT 10SM CLR M02/M04 A2997 RMK AO2 SLP150 T10221044 10056
                 21028 50000 $ =
2017-11-23 17:53 METAR KEWB 232253Z 00000KT 10SM CLR M01/M05 A2998 RMK AO2 SLP151 T10111050 $ =
2017-11-23 16:53 METAR KEWB 232153Z 00000KT 10SM CLR 02/M05 A2998 RMK AO2 SLP152 T00171050 $ =
2017-11-23 15:53 METAR KEWB 232053Z 22004KT 10SM CLR 04/M07 A2997 RMK AO2 SLP150 T00441067 56005
                 $ =
2017-11-23 14:53 METAR KEWB 231953Z 26004KT 10SM CLR 06/M07 A2998 RMK AO2 SLP151 T00561067 $ =
2017-11-23 13:53 METAR KEWB 231853Z 25004KT 10SM CLR 06/M07 A2998 RMK AO2 SLP153 T00561067 $ =
2017-11-23 12:53 METAR KEWB 231753Z 25008KT 10SM CLR 05/M06 A2999 RMK AO2 SLP155 T00501061 10050
                 21011 58016 $ =
2017-11-23 11:53 METAR KEWB 231653Z 29009KT 10SM CLR 04/M07 A3000 RMK AO2 SLP161 T00441067 $ =
2017-11-23 10:53 METAR KEWB 231553Z VRB05KT 10SM CLR 03/M07 A3002 RMK AO2 SLP167 T00331067 $ =
2017-11-23 09:53 METAR KEWB 231453Z 30005KT 10SM CLR 03/M07 A3004 RMK AO2 SLP171 T00281067 51007
                 $ =
2017-11-23 08:53 METAR KEWB 231353Z VRB05KT 10SM CLR 02/M06 A3002 RMK AO2 SLP167 T00171061 $ =
2017-11-23 07:53 METAR KEWB 231253Z 30005KT 10SM CLR 00/M06 A3003 RMK AO2 SLP170 T00001056 =
2017-11-23 06:53 METAR KEWB 231153Z 30007KT 10SM CLR M01/M06 A3001 RMK AO2 SLP164 70133 T10111056
                 10033 21011 50008 =
2017-11-23 05:53 METAR KEWB 231053Z AUTO 31004KT 10SM CLR 00/M06 A3002 RMK AO2 SLP166 T00001056 =
2017-11-23 04:53 METAR KEWB 230953Z AUTO 30007KT 10SM CLR 01/M06 A3000 RMK AO2 SLP159 T00061056 =
2017-11-23 03:53 METAR KEWB 230853Z AUTO 30008KT 10SM CLR 01/M05 A2999 RMK AO2 SLP156 T00061050
                 52016 =
2017-11-23 02:53 METAR KEWB 230753Z AUTO 30007KT 10SM CLR 01/M03 A2997 RMK AO2 SLP149 T00111033 =
2017-11-23 01:53 METAR KEWB 230653Z AUTO 31005KT 10SM CLR 02/M03 A2996 RMK AO2 SLP145 T00221028 =
2017-11-23 00:53 METAR KEWB 230553Z AUTO 31008KT 10SM OVC034 03/M02 A2994 RMK AO2 SLP139
                 T00331022 10067 20033 51016 =

Support USWX by starting your Amazon purchase here.